sensor_id;sensor_type;location;lat;lon;timestamp;P1;durP1;ratioP1;P2;durP2;ratioP2
41057;SDS011;66768;48.884;2.258;2023-07-31T00:00:03;0.90;;;0.90;;
41057;SDS011;66768;48.884;2.258;2023-07-31T00:02:31;0.80;;;0.80;;
41057;SDS011;66768;48.884;2.258;2023-07-31T00:04:58;0.80;;;0.80;;
41057;SDS011;66768;48.884;2.258;2023-07-31T00:07:25;0.77;;;0.77;;
41057;SDS011;66768;48.884;2.258;2023-07-31T00:09:53;0.70;;;0.70;;
41057;SDS011;66768;48.884;2.258;2023-07-31T00:12:21;0.63;;;0.63;;
41057;SDS011;66768;48.884;2.258;2023-07-31T00:14:48;0.50;;;0.50;;
41057;SDS011;66768;48.884;2.258;2023-07-31T00:17:16;0.50;;;0.50;;
41057;SDS011;66768;48.884;2.258;2023-07-31T00:19:43;0.50;;;0.50;;
41057;SDS011;66768;48.884;2.258;2023-07-31T00:22:11;0.50;;;0.50;;
41057;SDS011;66768;48.884;2.258;2023-07-31T00:24:38;0.60;;;0.60;;
41057;SDS011;66768;48.884;2.258;2023-07-31T00:27:06;0.52;;;0.52;;
41057;SDS011;66768;48.884;2.258;2023-07-31T00:29:33;0.50;;;0.50;;
41057;SDS011;66768;48.884;2.258;2023-07-31T00:32:00;0.60;;;0.60;;
41057;SDS011;66768;48.884;2.258;2023-07-31T00:34:26;0.60;;;0.60;;
41057;SDS011;66768;48.884;2.258;2023-07-31T00:36:53;0.60;;;0.60;;
41057;SDS011;66768;48.884;2.258;2023-07-31T00:39:20;0.60;;;0.60;;
41057;SDS011;66768;48.884;2.258;2023-07-31T00:41:47;0.60;;;0.60;;
41057;SDS011;66768;48.884;2.258;2023-07-31T00:44:15;0.60;;;0.60;;
41057;SDS011;66768;48.884;2.258;2023-07-31T00:46:42;0.50;;;0.50;;
41057;SDS011;66768;48.884;2.258;2023-07-31T00:49:09;0.50;;;0.50;;
41057;SDS011;66768;48.884;2.258;2023-07-31T00:51:37;0.60;;;0.60;;
41057;SDS011;66768;48.884;2.258;2023-07-31T00:54:03;0.50;;;0.50;;
41057;SDS011;66768;48.884;2.258;2023-07-31T00:56:31;0.60;;;0.60;;
41057;SDS011;66768;48.884;2.258;2023-07-31T00:58:59;0.55;;;0.55;;
41057;SDS011;66768;48.884;2.258;2023-07-31T01:01:27;0.50;;;0.50;;
41057;SDS011;66768;48.884;2.258;2023-07-31T01:03:54;0.50;;;0.50;;
41057;SDS011;66768;48.884;2.258;2023-07-31T01:06:24;0.60;;;0.60;;
41057;SDS011;66768;48.884;2.258;2023-07-31T01:09:01;0.50;;;0.50;;
41057;SDS011;66768;48.884;2.258;2023-07-31T01:11:30;0.50;;;0.50;;
41057;SDS011;66768;48.884;2.258;2023-07-31T01:13:58;0.60;;;0.60;;
41057;SDS011;66768;48.884;2.258;2023-07-31T01:16:27;0.50;;;0.50;;
41057;SDS011;66768;48.884;2.258;2023-07-31T01:18:54;0.57;;;0.57;;
41057;SDS011;66768;48.884;2.258;2023-07-31T01:21:22;0.55;;;0.55;;
41057;SDS011;66768;48.884;2.258;2023-07-31T01:24:20;0.60;;;0.60;;
41057;SDS011;66768;48.884;2.258;2023-07-31T01:26:51;0.50;;;0.50;;
41057;SDS011;66768;48.884;2.258;2023-07-31T01:29:23;0.50;;;0.50;;
41057;SDS011;66768;48.884;2.258;2023-07-31T01:34:27;0.60;;;0.60;;
41057;SDS011;66768;48.884;2.258;2023-07-31T01:36:55;0.50;;;0.50;;
41057;SDS011;66768;48.884;2.258;2023-07-31T01:39:22;0.60;;;0.60;;
41057;SDS011;66768;48.884;2.258;2023-07-31T01:41:51;0.52;;;0.52;;
41057;SDS011;66768;48.884;2.258;2023-07-31T01:44:17;0.50;;;0.50;;
41057;SDS011;66768;48.884;2.258;2023-07-31T01:46:44;0.40;;;0.40;;
41057;SDS011;66768;48.884;2.258;2023-07-31T01:49:11;0.63;;;0.63;;
41057;SDS011;66768;48.884;2.258;2023-07-31T01:51:38;0.60;;;0.60;;
41057;SDS011;66768;48.884;2.258;2023-07-31T01:54:05;0.50;;;0.50;;
41057;SDS011;66768;48.884;2.258;2023-07-31T01:56:32;0.50;;;0.50;;
41057;SDS011;66768;48.884;2.258;2023-07-31T01:59:00;0.55;;;0.55;;
41057;SDS011;66768;48.884;2.258;2023-07-31T02:01:27;0.60;;;0.60;;
41057;SDS011;66768;48.884;2.258;2023-07-31T02:03:54;0.50;;;0.50;;
41057;SDS011;66768;48.884;2.258;2023-07-31T02:06:20;0.50;;;0.50;;
41057;SDS011;66768;48.884;2.258;2023-07-31T02:08:47;0.50;;;0.50;;
41057;SDS011;66768;48.884;2.258;2023-07-31T02:11:15;0.50;;;0.50;;
41057;SDS011;66768;48.884;2.258;2023-07-31T02:13:42;0.60;;;0.60;;
41057;SDS011;66768;48.884;2.258;2023-07-31T02:16:10;0.60;;;0.60;;
41057;SDS011;66768;48.884;2.258;2023-07-31T02:18:37;0.60;;;0.60;;
41057;SDS011;66768;48.884;2.258;2023-07-31T02:21:04;0.60;;;0.60;;
41057;SDS011;66768;48.884;2.258;2023-07-31T02:23:31;0.70;;;0.70;;
41057;SDS011;66768;48.884;2.258;2023-07-31T02:25:57;0.70;;;0.70;;
41057;SDS011;66768;48.884;2.258;2023-07-31T02:28:24;0.70;;;0.70;;
41057;SDS011;66768;48.884;2.258;2023-07-31T02:30:51;0.70;;;0.70;;
41057;SDS011;66768;48.884;2.258;2023-07-31T02:33:19;0.70;;;0.70;;
41057;SDS011;66768;48.884;2.258;2023-07-31T02:35:46;0.70;;;0.70;;
41057;SDS011;66768;48.884;2.258;2023-07-31T02:38:13;0.80;;;0.80;;
41057;SDS011;66768;48.884;2.258;2023-07-31T02:40:40;0.80;;;0.80;;
41057;SDS011;66768;48.884;2.258;2023-07-31T02:43:07;0.70;;;0.70;;
41057;SDS011;66768;48.884;2.258;2023-07-31T02:45:34;0.70;;;0.70;;
41057;SDS011;66768;48.884;2.258;2023-07-31T02:48:01;0.80;;;0.80;;
41057;SDS011;66768;48.884;2.258;2023-07-31T02:50:29;0.70;;;0.70;;
41057;SDS011;66768;48.884;2.258;2023-07-31T02:52:57;0.70;;;0.70;;
41057;SDS011;66768;48.884;2.258;2023-07-31T02:55:24;0.70;;;0.70;;
41057;SDS011;66768;48.884;2.258;2023-07-31T02:57:50;0.60;;;0.60;;
41057;SDS011;66768;48.884;2.258;2023-07-31T03:00:17;0.70;;;0.70;;
41057;SDS011;66768;48.884;2.258;2023-07-31T03:02:45;0.70;;;0.70;;
41057;SDS011;66768;48.884;2.258;2023-07-31T03:05:11;0.60;;;0.60;;
41057;SDS011;66768;48.884;2.258;2023-07-31T03:07:40;0.60;;;0.60;;
41057;SDS011;66768;48.884;2.258;2023-07-31T03:10:07;0.60;;;0.60;;
41057;SDS011;66768;48.884;2.258;2023-07-31T03:12:34;0.60;;;0.60;;
41057;SDS011;66768;48.884;2.258;2023-07-31T03:15:01;0.60;;;0.60;;
41057;SDS011;66768;48.884;2.258;2023-07-31T03:17:28;0.60;;;0.60;;
41057;SDS011;66768;48.884;2.258;2023-07-31T03:19:55;0.60;;;0.60;;
41057;SDS011;66768;48.884;2.258;2023-07-31T03:22:22;0.60;;;0.60;;
41057;SDS011;66768;48.884;2.258;2023-07-31T03:24:50;0.50;;;0.50;;
41057;SDS011;66768;48.884;2.258;2023-07-31T03:27:17;0.40;;;0.40;;
41057;SDS011;66768;48.884;2.258;2023-07-31T03:29:44;0.50;;;0.50;;
41057;SDS011;66768;48.884;2.258;2023-07-31T03:32:11;0.50;;;0.50;;
41057;SDS011;66768;48.884;2.258;2023-07-31T03:34:38;0.40;;;0.40;;
41057;SDS011;66768;48.884;2.258;2023-07-31T03:37:05;0.40;;;0.40;;
41057;SDS011;66768;48.884;2.258;2023-07-31T03:39:34;0.50;;;0.50;;
41057;SDS011;66768;48.884;2.258;2023-07-31T03:42:02;0.47;;;0.47;;
41057;SDS011;66768;48.884;2.258;2023-07-31T03:44:29;0.40;;;0.40;;
41057;SDS011;66768;48.884;2.258;2023-07-31T03:46:56;0.50;;;0.50;;
41057;SDS011;66768;48.884;2.258;2023-07-31T03:49:23;0.50;;;0.50;;
41057;SDS011;66768;48.884;2.258;2023-07-31T03:51:50;0.40;;;0.40;;
41057;SDS011;66768;48.884;2.258;2023-07-31T03:54:17;0.52;;;0.52;;
41057;SDS011;66768;48.884;2.258;2023-07-31T03:56:43;0.45;;;0.45;;
41057;SDS011;66768;48.884;2.258;2023-07-31T03:59:12;0.50;;;0.50;;
41057;SDS011;66768;48.884;2.258;2023-07-31T04:01:38;0.50;;;0.50;;
41057;SDS011;66768;48.884;2.258;2023-07-31T04:04:05;0.50;;;0.50;;
41057;SDS011;66768;48.884;2.258;2023-07-31T04:06:32;0.40;;;0.40;;
41057;SDS011;66768;48.884;2.258;2023-07-31T04:08:59;0.40;;;0.40;;
41057;SDS011;66768;48.884;2.258;2023-07-31T04:11:26;0.40;;;0.40;;
41057;SDS011;66768;48.884;2.258;2023-07-31T04:13:53;0.40;;;0.40;;
41057;SDS011;66768;48.884;2.258;2023-07-31T04:16:21;0.40;;;0.40;;
41057;SDS011;66768;48.884;2.258;2023-07-31T04:18:48;0.40;;;0.40;;
41057;SDS011;66768;48.884;2.258;2023-07-31T04:21:15;0.43;;;0.43;;
41057;SDS011;66768;48.884;2.258;2023-07-31T04:23:42;0.40;;;0.40;;
41057;SDS011;66768;48.884;2.258;2023-07-31T04:26:09;0.40;;;0.40;;
41057;SDS011;66768;48.884;2.258;2023-07-31T04:28:36;0.40;;;0.40;;
41057;SDS011;66768;48.884;2.258;2023-07-31T04:31:03;0.40;;;0.40;;
41057;SDS011;66768;48.884;2.258;2023-07-31T04:33:31;0.40;;;0.40;;
41057;SDS011;66768;48.884;2.258;2023-07-31T04:35:59;0.40;;;0.40;;
41057;SDS011;66768;48.884;2.258;2023-07-31T04:38:25;0.40;;;0.40;;
41057;SDS011;66768;48.884;2.258;2023-07-31T04:40:52;0.40;;;0.40;;
41057;SDS011;66768;48.884;2.258;2023-07-31T04:43:19;0.30;;;0.30;;
41057;SDS011;66768;48.884;2.258;2023-07-31T04:45:46;0.40;;;0.40;;
41057;SDS011;66768;48.884;2.258;2023-07-31T04:48:15;0.40;;;0.40;;
41057;SDS011;66768;48.884;2.258;2023-07-31T04:50:43;0.40;;;0.40;;
41057;SDS011;66768;48.884;2.258;2023-07-31T04:53:10;0.40;;;0.40;;
41057;SDS011;66768;48.884;2.258;2023-07-31T04:55:36;0.40;;;0.40;;
41057;SDS011;66768;48.884;2.258;2023-07-31T04:58:03;0.40;;;0.40;;
41057;SDS011;66768;48.884;2.258;2023-07-31T05:00:31;0.40;;;0.40;;
41057;SDS011;66768;48.884;2.258;2023-07-31T05:02:58;0.50;;;0.50;;
41057;SDS011;66768;48.884;2.258;2023-07-31T05:05:25;0.50;;;0.50;;
41057;SDS011;66768;48.884;2.258;2023-07-31T05:07:53;0.60;;;0.60;;
41057;SDS011;66768;48.884;2.258;2023-07-31T05:10:20;0.65;;;0.65;;
41057;SDS011;66768;48.884;2.258;2023-07-31T05:12:47;0.70;;;0.70;;
41057;SDS011;66768;48.884;2.258;2023-07-31T05:15:14;0.77;;;0.77;;
41057;SDS011;66768;48.884;2.258;2023-07-31T05:17:40;0.80;;;0.80;;
41057;SDS011;66768;48.884;2.258;2023-07-31T05:20:08;0.70;;;0.70;;
41057;SDS011;66768;48.884;2.258;2023-07-31T05:22:35;0.60;;;0.60;;
41057;SDS011;66768;48.884;2.258;2023-07-31T05:25:04;0.60;;;0.60;;
41057;SDS011;66768;48.884;2.258;2023-07-31T05:27:31;0.60;;;0.60;;
41057;SDS011;66768;48.884;2.258;2023-07-31T05:29:58;0.60;;;0.60;;
41057;SDS011;66768;48.884;2.258;2023-07-31T05:32:25;0.50;;;0.50;;
41057;SDS011;66768;48.884;2.258;2023-07-31T05:34:52;0.50;;;0.50;;
41057;SDS011;66768;48.884;2.258;2023-07-31T05:37:19;0.50;;;0.50;;
41057;SDS011;66768;48.884;2.258;2023-07-31T05:39:47;0.60;;;0.60;;
41057;SDS011;66768;48.884;2.258;2023-07-31T05:42:15;0.60;;;0.60;;
41057;SDS011;66768;48.884;2.258;2023-07-31T05:44:42;0.63;;;0.63;;
41057;SDS011;66768;48.884;2.258;2023-07-31T05:47:09;0.70;;;0.70;;
41057;SDS011;66768;48.884;2.258;2023-07-31T05:49:35;0.68;;;0.68;;
41057;SDS011;66768;48.884;2.258;2023-07-31T05:52:03;0.70;;;0.70;;
41057;SDS011;66768;48.884;2.258;2023-07-31T05:54:31;0.80;;;0.80;;
41057;SDS011;66768;48.884;2.258;2023-07-31T05:56:58;0.90;;;0.90;;
41057;SDS011;66768;48.884;2.258;2023-07-31T05:59:27;1.10;;;1.10;;
41057;SDS011;66768;48.884;2.258;2023-07-31T06:01:56;1.10;;;1.10;;
41057;SDS011;66768;48.884;2.258;2023-07-31T06:04:22;1.20;;;1.20;;
41057;SDS011;66768;48.884;2.258;2023-07-31T06:06:50;1.30;;;1.30;;
41057;SDS011;66768;48.884;2.258;2023-07-31T06:09:17;1.25;;;1.25;;
41057;SDS011;66768;48.884;2.258;2023-07-31T06:11:45;1.00;;;1.00;;
41057;SDS011;66768;48.884;2.258;2023-07-31T06:14:12;1.00;;;1.00;;
41057;SDS011;66768;48.884;2.258;2023-07-31T06:16:40;0.90;;;0.90;;
41057;SDS011;66768;48.884;2.258;2023-07-31T06:19:09;0.98;;;0.98;;
41057;SDS011;66768;48.884;2.258;2023-07-31T06:21:36;1.00;;;1.00;;
41057;SDS011;66768;48.884;2.258;2023-07-31T06:24:03;0.90;;;0.90;;
41057;SDS011;66768;48.884;2.258;2023-07-31T06:26:30;0.80;;;0.80;;
41057;SDS011;66768;48.884;2.258;2023-07-31T06:28:57;0.80;;;0.80;;
41057;SDS011;66768;48.884;2.258;2023-07-31T06:31:24;0.80;;;0.80;;
41057;SDS011;66768;48.884;2.258;2023-07-31T06:33:53;0.80;;;0.80;;
41057;SDS011;66768;48.884;2.258;2023-07-31T06:36:20;0.70;;;0.70;;
41057;SDS011;66768;48.884;2.258;2023-07-31T06:38:48;0.82;;;0.82;;
41057;SDS011;66768;48.884;2.258;2023-07-31T06:41:14;0.80;;;0.80;;
41057;SDS011;66768;48.884;2.258;2023-07-31T06:43:41;0.70;;;0.70;;
41057;SDS011;66768;48.884;2.258;2023-07-31T06:46:08;0.65;;;0.65;;
41057;SDS011;66768;48.884;2.258;2023-07-31T06:48:36;0.70;;;0.70;;
41057;SDS011;66768;48.884;2.258;2023-07-31T06:51:04;0.70;;;0.70;;
41057;SDS011;66768;48.884;2.258;2023-07-31T06:53:31;0.70;;;0.70;;
41057;SDS011;66768;48.884;2.258;2023-07-31T06:55:58;0.70;;;0.70;;
41057;SDS011;66768;48.884;2.258;2023-07-31T06:58:24;0.70;;;0.70;;
41057;SDS011;66768;48.884;2.258;2023-07-31T07:00:51;0.70;;;0.70;;
41057;SDS011;66768;48.884;2.258;2023-07-31T07:03:18;0.80;;;0.80;;
41057;SDS011;66768;48.884;2.258;2023-07-31T07:05:45;0.60;;;0.60;;
41057;SDS011;66768;48.884;2.258;2023-07-31T07:08:14;0.80;;;0.80;;
41057;SDS011;66768;48.884;2.258;2023-07-31T07:10:41;0.70;;;0.70;;
41057;SDS011;66768;48.884;2.258;2023-07-31T07:13:08;0.70;;;0.70;;
41057;SDS011;66768;48.884;2.258;2023-07-31T07:15:37;0.60;;;0.60;;
41057;SDS011;66768;48.884;2.258;2023-07-31T07:18:04;0.65;;;0.65;;
41057;SDS011;66768;48.884;2.258;2023-07-31T07:20:31;0.80;;;0.80;;
41057;SDS011;66768;48.884;2.258;2023-07-31T07:22:58;0.70;;;0.70;;
41057;SDS011;66768;48.884;2.258;2023-07-31T07:25:26;0.70;;;0.70;;
41057;SDS011;66768;48.884;2.258;2023-07-31T07:27:53;0.75;;;0.75;;
41057;SDS011;66768;48.884;2.258;2023-07-31T07:30:20;0.70;;;0.70;;
41057;SDS011;66768;48.884;2.258;2023-07-31T07:32:48;0.70;;;0.70;;
41057;SDS011;66768;48.884;2.258;2023-07-31T07:35:15;0.77;;;0.77;;
41057;SDS011;66768;48.884;2.258;2023-07-31T07:37:42;0.80;;;0.80;;
41057;SDS011;66768;48.884;2.258;2023-07-31T07:40:09;0.73;;;0.73;;
41057;SDS011;66768;48.884;2.258;2023-07-31T07:42:38;0.80;;;0.80;;
41057;SDS011;66768;48.884;2.258;2023-07-31T07:45:05;0.80;;;0.80;;
41057;SDS011;66768;48.884;2.258;2023-07-31T07:47:32;0.77;;;0.77;;
41057;SDS011;66768;48.884;2.258;2023-07-31T07:49:59;0.80;;;0.80;;
41057;SDS011;66768;48.884;2.258;2023-07-31T07:52:26;0.82;;;0.82;;
41057;SDS011;66768;48.884;2.258;2023-07-31T07:54:54;0.80;;;0.80;;
41057;SDS011;66768;48.884;2.258;2023-07-31T07:57:22;0.80;;;0.80;;
41057;SDS011;66768;48.884;2.258;2023-07-31T07:59:50;0.73;;;0.73;;
41057;SDS011;66768;48.884;2.258;2023-07-31T08:02:17;0.90;;;0.90;;
41057;SDS011;66768;48.884;2.258;2023-07-31T08:04:44;0.65;;;0.65;;
41057;SDS011;66768;48.884;2.258;2023-07-31T08:07:11;0.63;;;0.63;;
41057;SDS011;66768;48.884;2.258;2023-07-31T08:09:38;0.60;;;0.60;;
41057;SDS011;66768;48.884;2.258;2023-07-31T08:12:05;0.60;;;0.60;;
41057;SDS011;66768;48.884;2.258;2023-07-31T08:14:33;0.60;;;0.60;;
41057;SDS011;66768;48.884;2.258;2023-07-31T08:17:02;0.60;;;0.60;;
41057;SDS011;66768;48.884;2.258;2023-07-31T08:19:29;0.60;;;0.60;;
41057;SDS011;66768;48.884;2.258;2023-07-31T08:21:56;0.70;;;0.70;;
41057;SDS011;66768;48.884;2.258;2023-07-31T08:24:23;0.80;;;0.80;;
41057;SDS011;66768;48.884;2.258;2023-07-31T08:26:50;0.60;;;0.60;;
41057;SDS011;66768;48.884;2.258;2023-07-31T08:29:17;0.50;;;0.50;;
41057;SDS011;66768;48.884;2.258;2023-07-31T08:31:44;0.50;;;0.50;;
41057;SDS011;66768;48.884;2.258;2023-07-31T08:34:12;0.60;;;0.60;;
41057;SDS011;66768;48.884;2.258;2023-07-31T08:36:39;0.52;;;0.52;;
41057;SDS011;66768;48.884;2.258;2023-07-31T08:39:06;0.60;;;0.60;;
41057;SDS011;66768;48.884;2.258;2023-07-31T08:41:37;0.60;;;0.60;;
41057;SDS011;66768;48.884;2.258;2023-07-31T08:44:05;0.70;;;0.70;;
41057;SDS011;66768;48.884;2.258;2023-07-31T08:46:33;0.60;;;0.60;;
41057;SDS011;66768;48.884;2.258;2023-07-31T08:49:00;0.60;;;0.60;;
41057;SDS011;66768;48.884;2.258;2023-07-31T08:51:33;0.60;;;0.60;;
41057;SDS011;66768;48.884;2.258;2023-07-31T08:54:00;0.60;;;0.60;;
41057;SDS011;66768;48.884;2.258;2023-07-31T08:56:29;0.80;;;0.80;;
41057;SDS011;66768;48.884;2.258;2023-07-31T08:58:58;0.70;;;0.70;;
41057;SDS011;66768;48.884;2.258;2023-07-31T09:01:29;0.70;;;0.70;;
41057;SDS011;66768;48.884;2.258;2023-07-31T09:03:57;0.68;;;0.68;;
41057;SDS011;66768;48.884;2.258;2023-07-31T09:06:25;0.60;;;0.60;;
41057;SDS011;66768;48.884;2.258;2023-07-31T09:08:57;0.60;;;0.60;;
41057;SDS011;66768;48.884;2.258;2023-07-31T09:11:24;0.60;;;0.60;;
41057;SDS011;66768;48.884;2.258;2023-07-31T09:13:53;0.50;;;0.50;;
41057;SDS011;66768;48.884;2.258;2023-07-31T09:16:26;0.60;;;0.60;;
41057;SDS011;66768;48.884;2.258;2023-07-31T09:18:56;0.57;;;0.57;;
41057;SDS011;66768;48.884;2.258;2023-07-31T09:21:24;0.50;;;0.50;;
41057;SDS011;66768;48.884;2.258;2023-07-31T09:23:53;0.60;;;0.60;;
41057;SDS011;66768;48.884;2.258;2023-07-31T09:26:39;0.60;;;0.60;;
41057;SDS011;66768;48.884;2.258;2023-07-31T09:29:07;0.60;;;0.60;;
41057;SDS011;66768;48.884;2.258;2023-07-31T09:31:45;0.60;;;0.60;;
41057;SDS011;66768;48.884;2.258;2023-07-31T09:34:12;0.60;;;0.60;;
41057;SDS011;66768;48.884;2.258;2023-07-31T09:36:39;0.70;;;0.70;;
41057;SDS011;66768;48.884;2.258;2023-07-31T09:39:08;0.60;;;0.60;;
41057;SDS011;66768;48.884;2.258;2023-07-31T09:41:38;0.60;;;0.60;;
41057;SDS011;66768;48.884;2.258;2023-07-31T09:44:05;0.50;;;0.50;;
41057;SDS011;66768;48.884;2.258;2023-07-31T09:46:34;0.60;;;0.60;;
41057;SDS011;66768;48.884;2.258;2023-07-31T09:49:08;0.50;;;0.50;;
41057;SDS011;66768;48.884;2.258;2023-07-31T09:51:35;0.40;;;0.40;;
41057;SDS011;66768;48.884;2.258;2023-07-31T09:54:08;0.50;;;0.50;;
41057;SDS011;66768;48.884;2.258;2023-07-31T09:56:38;0.50;;;0.50;;
41057;SDS011;66768;48.884;2.258;2023-07-31T09:59:10;0.40;;;0.40;;
41057;SDS011;66768;48.884;2.258;2023-07-31T10:01:39;0.40;;;0.40;;
41057;SDS011;66768;48.884;2.258;2023-07-31T10:04:07;0.40;;;0.40;;
41057;SDS011;66768;48.884;2.258;2023-07-31T10:06:35;0.40;;;0.40;;
41057;SDS011;66768;48.884;2.258;2023-07-31T10:09:03;0.40;;;0.40;;
41057;SDS011;66768;48.884;2.258;2023-07-31T10:11:34;0.40;;;0.40;;
41057;SDS011;66768;48.884;2.258;2023-07-31T10:14:09;0.40;;;0.40;;
41057;SDS011;66768;48.884;2.258;2023-07-31T10:16:37;0.40;;;0.40;;
41057;SDS011;66768;48.884;2.258;2023-07-31T10:19:05;0.50;;;0.50;;
41057;SDS011;66768;48.884;2.258;2023-07-31T10:21:33;0.50;;;0.50;;
41057;SDS011;66768;48.884;2.258;2023-07-31T10:24:02;0.45;;;0.45;;
41057;SDS011;66768;48.884;2.258;2023-07-31T10:26:31;0.30;;;0.30;;
41057;SDS011;66768;48.884;2.258;2023-07-31T10:29:00;0.30;;;0.30;;
41057;SDS011;66768;48.884;2.258;2023-07-31T10:31:27;0.40;;;0.40;;
41057;SDS011;66768;48.884;2.258;2023-07-31T10:33:55;0.40;;;0.40;;
41057;SDS011;66768;48.884;2.258;2023-07-31T10:36:24;0.40;;;0.40;;
41057;SDS011;66768;48.884;2.258;2023-07-31T10:38:52;0.43;;;0.43;;
41057;SDS011;66768;48.884;2.258;2023-07-31T10:41:19;0.50;;;0.50;;
41057;SDS011;66768;48.884;2.258;2023-07-31T10:43:46;0.60;;;0.60;;
41057;SDS011;66768;48.884;2.258;2023-07-31T10:46:28;0.60;;;0.60;;
41057;SDS011;66768;48.884;2.258;2023-07-31T10:48:58;0.80;;;0.80;;
41057;SDS011;66768;48.884;2.258;2023-07-31T10:51:32;0.80;;;0.80;;
41057;SDS011;66768;48.884;2.258;2023-07-31T10:54:10;0.80;;;0.80;;
41057;SDS011;66768;48.884;2.258;2023-07-31T10:56:37;1.08;;;1.08;;
41057;SDS011;66768;48.884;2.258;2023-07-31T10:59:04;1.10;;;1.10;;
41057;SDS011;66768;48.884;2.258;2023-07-31T11:01:52;1.15;;;1.15;;
41057;SDS011;66768;48.884;2.258;2023-07-31T11:04:23;1.02;;;1.02;;
41057;SDS011;66768;48.884;2.258;2023-07-31T11:06:57;0.80;;;0.80;;
41057;SDS011;66768;48.884;2.258;2023-07-31T11:09:25;0.80;;;0.80;;
41057;SDS011;66768;48.884;2.258;2023-07-31T11:11:56;0.60;;;0.60;;
41057;SDS011;66768;48.884;2.258;2023-07-31T11:14:23;0.70;;;0.70;;
41057;SDS011;66768;48.884;2.258;2023-07-31T11:16:52;0.70;;;0.70;;
41057;SDS011;66768;48.884;2.258;2023-07-31T11:19:22;0.70;;;0.70;;
41057;SDS011;66768;48.884;2.258;2023-07-31T11:21:49;0.80;;;0.80;;
41057;SDS011;66768;48.884;2.258;2023-07-31T11:24:17;0.93;;;0.93;;
41057;SDS011;66768;48.884;2.258;2023-07-31T11:26:48;0.90;;;0.90;;
41057;SDS011;66768;48.884;2.258;2023-07-31T11:29:15;1.02;;;1.02;;
41057;SDS011;66768;48.884;2.258;2023-07-31T11:31:43;1.20;;;1.20;;
41057;SDS011;66768;48.884;2.258;2023-07-31T11:34:13;1.30;;;1.30;;
41057;SDS011;66768;48.884;2.258;2023-07-31T11:36:40;1.27;;;1.27;;
41057;SDS011;66768;48.884;2.258;2023-07-31T11:39:07;1.55;;;1.55;;
41057;SDS011;66768;48.884;2.258;2023-07-31T11:41:35;1.50;;;1.50;;
41057;SDS011;66768;48.884;2.258;2023-07-31T11:44:02;1.60;;;1.60;;
41057;SDS011;66768;48.884;2.258;2023-07-31T11:46:30;1.40;;;1.40;;
41057;SDS011;66768;48.884;2.258;2023-07-31T11:48:58;1.50;;;1.50;;
41057;SDS011;66768;48.884;2.258;2023-07-31T11:51:27;1.35;;;1.35;;
41057;SDS011;66768;48.884;2.258;2023-07-31T11:53:56;1.48;;;1.48;;
41057;SDS011;66768;48.884;2.258;2023-07-31T11:56:25;1.50;;;1.50;;
41057;SDS011;66768;48.884;2.258;2023-07-31T11:58:55;1.40;;;1.40;;
41057;SDS011;66768;48.884;2.258;2023-07-31T12:01:24;1.40;;;1.40;;
41057;SDS011;66768;48.884;2.258;2023-07-31T12:03:53;1.30;;;1.30;;
41057;SDS011;66768;48.884;2.258;2023-07-31T12:06:21;1.55;;;1.55;;
41057;SDS011;66768;48.884;2.258;2023-07-31T12:08:49;1.30;;;1.30;;
41057;SDS011;66768;48.884;2.258;2023-07-31T12:11:16;1.42;;;1.42;;
41057;SDS011;66768;48.884;2.258;2023-07-31T12:13:43;1.27;;;1.27;;
41057;SDS011;66768;48.884;2.258;2023-07-31T12:16:10;1.30;;;1.30;;
41057;SDS011;66768;48.884;2.258;2023-07-31T12:18:38;1.23;;;1.23;;
41057;SDS011;66768;48.884;2.258;2023-07-31T12:21:05;1.23;;;1.23;;
41057;SDS011;66768;48.884;2.258;2023-07-31T12:23:34;1.25;;;1.25;;
41057;SDS011;66768;48.884;2.258;2023-07-31T12:26:04;1.25;;;1.25;;
41057;SDS011;66768;48.884;2.258;2023-07-31T12:28:34;1.23;;;1.23;;
41057;SDS011;66768;48.884;2.258;2023-07-31T12:31:02;1.10;;;1.10;;
41057;SDS011;66768;48.884;2.258;2023-07-31T12:33:31;1.20;;;1.20;;
41057;SDS011;66768;48.884;2.258;2023-07-31T12:36:00;1.17;;;1.17;;
41057;SDS011;66768;48.884;2.258;2023-07-31T12:38:27;1.10;;;1.10;;
41057;SDS011;66768;48.884;2.258;2023-07-31T12:40:54;1.10;;;1.10;;
41057;SDS011;66768;48.884;2.258;2023-07-31T12:43:25;1.13;;;1.13;;
41057;SDS011;66768;48.884;2.258;2023-07-31T12:45:53;1.10;;;1.10;;
41057;SDS011;66768;48.884;2.258;2023-07-31T12:48:21;1.10;;;1.10;;
41057;SDS011;66768;48.884;2.258;2023-07-31T12:50:48;1.10;;;1.10;;
41057;SDS011;66768;48.884;2.258;2023-07-31T12:53:15;1.08;;;1.08;;
41057;SDS011;66768;48.884;2.258;2023-07-31T12:55:42;1.30;;;1.30;;
41057;SDS011;66768;48.884;2.258;2023-07-31T12:58:09;1.00;;;1.00;;
41057;SDS011;66768;48.884;2.258;2023-07-31T13:00:37;1.20;;;1.20;;
41057;SDS011;66768;48.884;2.258;2023-07-31T13:03:04;1.17;;;1.17;;
41057;SDS011;66768;48.884;2.258;2023-07-31T13:05:31;1.10;;;1.10;;
41057;SDS011;66768;48.884;2.258;2023-07-31T13:07:58;1.05;;;1.05;;
41057;SDS011;66768;48.884;2.258;2023-07-31T13:10:25;1.17;;;1.17;;
41057;SDS011;66768;48.884;2.258;2023-07-31T13:12:54;1.13;;;1.13;;
41057;SDS011;66768;48.884;2.258;2023-07-31T13:15:21;1.13;;;1.13;;
41057;SDS011;66768;48.884;2.258;2023-07-31T13:17:50;1.08;;;1.08;;
41057;SDS011;66768;48.884;2.258;2023-07-31T13:20:17;1.20;;;1.20;;
41057;SDS011;66768;48.884;2.258;2023-07-31T13:22:44;1.13;;;1.13;;
41057;SDS011;66768;48.884;2.258;2023-07-31T13:25:12;1.08;;;1.08;;
41057;SDS011;66768;48.884;2.258;2023-07-31T13:27:40;1.10;;;1.10;;
41057;SDS011;66768;48.884;2.258;2023-07-31T13:30:07;1.17;;;1.17;;
41057;SDS011;66768;48.884;2.258;2023-07-31T13:32:34;1.20;;;1.20;;
41057;SDS011;66768;48.884;2.258;2023-07-31T13:35:05;1.13;;;1.13;;
41057;SDS011;66768;48.884;2.258;2023-07-31T13:37:32;1.63;;;1.63;;
41057;SDS011;66768;48.884;2.258;2023-07-31T13:39:59;1.50;;;1.50;;
41057;SDS011;66768;48.884;2.258;2023-07-31T13:42:26;1.08;;;1.08;;
41057;SDS011;66768;48.884;2.258;2023-07-31T13:44:53;1.13;;;1.13;;
41057;SDS011;66768;48.884;2.258;2023-07-31T13:47:21;1.13;;;1.13;;
41057;SDS011;66768;48.884;2.258;2023-07-31T13:49:48;1.25;;;1.25;;
41057;SDS011;66768;48.884;2.258;2023-07-31T13:52:16;1.20;;;1.20;;
41057;SDS011;66768;48.884;2.258;2023-07-31T13:54:43;1.38;;;1.38;;
41057;SDS011;66768;48.884;2.258;2023-07-31T13:57:10;1.35;;;1.35;;
41057;SDS011;66768;48.884;2.258;2023-07-31T13:59:37;1.42;;;1.42;;
41057;SDS011;66768;48.884;2.258;2023-07-31T14:02:04;1.40;;;1.40;;
41057;SDS011;66768;48.884;2.258;2023-07-31T14:04:31;1.27;;;1.27;;
41057;SDS011;66768;48.884;2.258;2023-07-31T14:06:59;1.30;;;1.30;;
41057;SDS011;66768;48.884;2.258;2023-07-31T14:09:27;1.30;;;1.30;;
41057;SDS011;66768;48.884;2.258;2023-07-31T14:11:54;1.23;;;1.23;;
41057;SDS011;66768;48.884;2.258;2023-07-31T14:14:21;1.20;;;1.20;;
41057;SDS011;66768;48.884;2.258;2023-07-31T14:16:48;1.25;;;1.25;;
41057;SDS011;66768;48.884;2.258;2023-07-31T14:19:15;1.25;;;1.25;;
41057;SDS011;66768;48.884;2.258;2023-07-31T14:21:42;1.50;;;1.50;;
41057;SDS011;66768;48.884;2.258;2023-07-31T14:24:09;1.48;;;1.48;;
41057;SDS011;66768;48.884;2.258;2023-07-31T14:26:37;1.75;;;1.75;;
41057;SDS011;66768;48.884;2.258;2023-07-31T14:29:04;1.92;;;1.92;;
41057;SDS011;66768;48.884;2.258;2023-07-31T14:31:30;1.70;;;1.70;;
41057;SDS011;66768;48.884;2.258;2023-07-31T14:33:57;1.90;;;1.90;;
41057;SDS011;66768;48.884;2.258;2023-07-31T14:36:24;1.77;;;1.77;;
41057;SDS011;66768;48.884;2.258;2023-07-31T14:38:51;1.63;;;1.63;;
41057;SDS011;66768;48.884;2.258;2023-07-31T14:41:18;1.67;;;1.67;;
41057;SDS011;66768;48.884;2.258;2023-07-31T14:43:46;1.65;;;1.65;;
41057;SDS011;66768;48.884;2.258;2023-07-31T14:46:13;1.70;;;1.70;;
41057;SDS011;66768;48.884;2.258;2023-07-31T14:48:40;1.60;;;1.60;;
41057;SDS011;66768;48.884;2.258;2023-07-31T14:51:06;1.60;;;1.60;;
41057;SDS011;66768;48.884;2.258;2023-07-31T14:53:33;1.60;;;1.60;;